sensor_id;sensor_type;location;lat;lon;timestamp;pressure;altitude;pressure_sealevel;temperature;humidity
48796;BME280;34607;48.520;-1.330;2024-02-23T08:41:10;97914.34;;;6.36;100.00
48796;BME280;34607;48.520;-1.330;2024-02-23T08:43:37;97916.00;;;6.45;100.00
48796;BME280;34607;48.520;-1.330;2024-02-23T08:46:04;97922.81;;;6.54;100.00
48796;BME280;34607;48.520;-1.330;2024-02-23T08:48:31;97929.59;;;6.61;100.00
48796;BME280;34607;48.520;-1.330;2024-02-23T08:50:58;97931.31;;;6.65;100.00
48796;BME280;34607;48.520;-1.330;2024-02-23T08:53:26;97921.84;;;6.70;100.00
48796;BME280;34607;48.520;-1.330;2024-02-23T08:55:53;97929.56;;;6.70;100.00
48796;BME280;34607;48.520;-1.330;2024-02-23T08:58:21;97914.13;;;6.70;100.00
48796;BME280;34607;48.520;-1.330;2024-02-23T09:00:48;97911.50;;;6.75;100.00
48796;BME280;34607;48.520;-1.330;2024-02-23T09:03:15;97925.09;;;6.92;100.00
48796;BME280;34607;48.520;-1.330;2024-02-23T09:05:42;97919.84;;;7.06;100.00
48796;BME280;34607;48.520;-1.330;2024-02-23T09:08:12;97925.81;;;7.10;100.00
48796;BME280;34607;48.520;-1.330;2024-02-23T09:10:39;97939.47;;;7.18;99.59
48796;BME280;34607;48.520;-1.330;2024-02-23T09:13:06;97917.03;;;7.28;98.84
48796;BME280;34607;48.520;-1.330;2024-02-23T09:15:35;97920.38;;;7.39;98.52
48796;BME280;34607;48.520;-1.330;2024-02-23T09:18:03;97924.44;;;7.60;98.47
48796;BME280;34607;48.520;-1.330;2024-02-23T09:20:30;97931.09;;;7.80;97.86
48796;BME280;34607;48.520;-1.330;2024-02-23T09:22:57;97915.41;;;7.97;97.11
48796;BME280;34607;48.520;-1.330;2024-02-23T09:25:24;97930.78;;;8.07;96.04
48796;BME280;34607;48.520;-1.330;2024-02-23T09:27:51;97925.31;;;8.28;95.17
48796;BME280;34607;48.520;-1.330;2024-02-23T09:30:19;97926.00;;;8.42;94.27
48796;BME280;34607;48.520;-1.330;2024-02-23T09:32:47;97930.22;;;8.51;92.62
48796;BME280;34607;48.520;-1.330;2024-02-23T09:35:15;97927.78;;;8.38;91.72
48796;BME280;34607;48.520;-1.330;2024-02-23T09:37:42;97937.94;;;8.52;92.93
48796;BME280;34607;48.520;-1.330;2024-02-23T09:40:10;97946.19;;;8.74;92.35
48796;BME280;34607;48.520;-1.330;2024-02-23T09:42:38;97948.56;;;8.88;91.96
48796;BME280;34607;48.520;-1.330;2024-02-23T09:45:07;97942.72;;;8.75;90.56
48796;BME280;34607;48.520;-1.330;2024-02-23T09:47:36;97943.72;;;8.68;91.19
48796;BME280;34607;48.520;-1.330;2024-02-23T09:50:05;97943.72;;;8.68;90.89
48796;BME280;34607;48.520;-1.330;2024-02-23T09:52:33;97936.63;;;8.83;90.49
48796;BME280;34607;48.520;-1.330;2024-02-23T09:55:00;97934.75;;;8.91;89.41
48796;BME280;34607;48.520;-1.330;2024-02-23T09:57:29;97934.91;;;8.81;89.48
48796;BME280;34607;48.520;-1.330;2024-02-23T09:59:56;97929.72;;;8.85;89.47
48796;BME280;34607;48.520;-1.330;2024-02-23T10:02:24;97940.84;;;8.87;89.61
48796;BME280;34607;48.520;-1.330;2024-02-23T10:04:52;97924.34;;;8.97;89.55
48796;BME280;34607;48.520;-1.330;2024-02-23T10:07:23;97921.75;;;8.98;89.13
48796;BME280;34607;48.520;-1.330;2024-02-23T10:09:52;97923.66;;;8.84;88.92
48796;BME280;34607;48.520;-1.330;2024-02-23T10:12:21;97933.13;;;8.85;89.15
48796;BME280;34607;48.520;-1.330;2024-02-23T10:14:48;97922.78;;;8.87;89.00
48796;BME280;34607;48.520;-1.330;2024-02-23T10:17:15;97918.56;;;8.83;88.88
48796;BME280;34607;48.520;-1.330;2024-02-23T10:19:42;97925.59;;;8.71;88.75
48796;BME280;34607;48.520;-1.330;2024-02-23T10:22:11;97924.66;;;8.75;88.99
48796;BME280;34607;48.520;-1.330;2024-02-23T10:24:39;97928.25;;;8.65;88.47
48796;BME280;34607;48.520;-1.330;2024-02-23T10:27:08;97925.56;;;8.74;89.14
48796;BME280;34607;48.520;-1.330;2024-02-23T10:29:35;97924.53;;;8.86;nan
48796;BME280;34607;48.520;-1.330;2024-02-23T10:32:03;97925.97;;;9.01;89.04
48796;BME280;34607;48.520;-1.330;2024-02-23T10:34:34;97926.91;;;8.97;88.16
48796;BME280;34607;48.520;-1.330;2024-02-23T10:37:05;97910.50;;;9.01;88.49
48796;BME280;34607;48.520;-1.330;2024-02-23T10:39:36;97902.69;;;9.06;88.29
48796;BME280;34607;48.520;-1.330;2024-02-23T10:42:09;97930.97;;;9.13;87.99
48796;BME280;34607;48.520;-1.330;2024-02-23T10:44:37;97914.88;;;8.96;88.65
48796;BME280;34607;48.520;-1.330;2024-02-23T10:47:04;97923.16;;;9.15;88.32
48796;BME280;34607;48.520;-1.330;2024-02-23T10:49:33;97918.56;;;9.34;88.46
48796;BME280;34607;48.520;-1.330;2024-02-23T10:52:00;97918.44;;;9.40;88.04
48796;BME280;34607;48.520;-1.330;2024-02-23T10:54:29;97909.09;;;9.33;87.08
48796;BME280;34607;48.520;-1.330;2024-02-23T10:56:58;97926.34;;;9.31;87.09
48796;BME280;34607;48.520;-1.330;2024-02-23T10:59:26;97927.53;;;9.11;86.45
48796;BME280;34607;48.520;-1.330;2024-02-23T11:01:54;97938.84;;;9.04;87.05
48796;BME280;34607;48.520;-1.330;2024-02-23T11:04:26;97937.03;;;9.09;87.15
48796;BME280;34607;48.520;-1.330;2024-02-23T11:06:54;97933.63;;;9.09;87.05
48796;BME280;34607;48.520;-1.330;2024-02-23T11:09:24;97913.69;;;9.17;87.64
48796;BME280;34607;48.520;-1.330;2024-02-23T11:11:56;97926.41;;;9.28;86.83
48796;BME280;34607;48.520;-1.330;2024-02-23T11:14:31;97923.84;;;9.26;86.84
48796;BME280;34607;48.520;-1.330;2024-02-23T11:16:59;97925.59;;;9.26;86.91
48796;BME280;34607;48.520;-1.330;2024-02-23T11:19:33;97912.91;;;9.12;86.91
48796;BME280;34607;48.520;-1.330;2024-02-23T11:22:01;97923.22;;;9.13;87.17
48796;BME280;34607;48.520;-1.330;2024-02-23T11:24:29;97926.00;;;8.99;86.81
48796;BME280;34607;48.520;-1.330;2024-02-23T11:26:57;97927.78;;;8.96;87.38
48796;BME280;34607;48.520;-1.330;2024-02-23T11:29:26;97922.56;;;8.99;87.75
48796;BME280;34607;48.520;-1.330;2024-02-23T11:31:55;97929.53;;;8.94;87.76
48796;BME280;34607;48.520;-1.330;2024-02-23T11:34:27;97911.41;;;8.98;87.89
48796;BME280;34607;48.520;-1.330;2024-02-23T11:36:54;97917.97;;;9.16;87.29
48796;BME280;34607;48.520;-1.330;2024-02-23T11:39:22;97920.41;;;9.26;87.15
48796;BME280;34607;48.520;-1.330;2024-02-23T11:41:50;97915.28;;;9.24;86.37
48796;BME280;34607;48.520;-1.330;2024-02-23T11:44:17;97917.94;;;9.19;86.20
48796;BME280;34607;48.520;-1.330;2024-02-23T11:46:44;97908.28;;;9.31;86.33
48796;BME280;34607;48.520;-1.330;2024-02-23T11:49:15;97909.13;;;9.31;85.92
48796;BME280;34607;48.520;-1.330;2024-02-23T11:51:42;97893.97;;;9.60;86.03
48796;BME280;34607;48.520;-1.330;2024-02-23T11:54:10;97892.72;;;9.79;85.21
48796;BME280;34607;48.520;-1.330;2024-02-23T11:56:37;97888.53;;;9.73;84.50
48796;BME280;34607;48.520;-1.330;2024-02-23T11:59:04;97891.63;;;9.91;84.17
48796;BME280;34607;48.520;-1.330;2024-02-23T12:01:32;97885.22;;;10.07;83.31
48796;BME280;34607;48.520;-1.330;2024-02-23T12:03:59;97889.91;;;10.32;82.97
48796;BME280;34607;48.520;-1.330;2024-02-23T12:06:29;97874.66;;;10.57;82.38
48796;BME280;34607;48.520;-1.330;2024-02-23T12:08:58;97875.78;;;10.47;80.83
48796;BME280;34607;48.520;-1.330;2024-02-23T12:11:25;97881.81;;;10.46;80.60
48796;BME280;34607;48.520;-1.330;2024-02-23T12:13:53;97863.75;;;10.80;80.59
48796;BME280;34607;48.520;-1.330;2024-02-23T12:16:20;97854.25;;;10.81;79.72
48796;BME280;34607;48.520;-1.330;2024-02-23T12:18:52;97858.59;;;10.79;79.25
48796;BME280;34607;48.520;-1.330;2024-02-23T12:21:20;97852.94;;;10.64;78.37
48796;BME280;34607;48.520;-1.330;2024-02-23T12:23:49;97854.50;;;10.70;78.26
48796;BME280;34607;48.520;-1.330;2024-02-23T12:26:17;97854.94;;;10.87;77.23
48796;BME280;34607;48.520;-1.330;2024-02-23T12:28:45;97843.25;;;11.07;77.49
48796;BME280;34607;48.520;-1.330;2024-02-23T12:31:12;97847.59;;;11.38;76.73
48796;BME280;34607;48.520;-1.330;2024-02-23T12:33:40;97848.00;;;11.22;75.80
48796;BME280;34607;48.520;-1.330;2024-02-23T12:36:08;97837.75;;;11.18;76.16
48796;BME280;34607;48.520;-1.330;2024-02-23T12:38:35;97839.88;;;11.36;76.27
48796;BME280;34607;48.520;-1.330;2024-02-23T12:41:04;97834.16;;;11.55;75.69
48796;BME280;34607;48.520;-1.330;2024-02-23T12:43:31;97829.78;;;11.57;75.52
48796;BME280;34607;48.520;-1.330;2024-02-23T12:45:59;97839.44;;;11.52;75.40
48796;BME280;34607;48.520;-1.330;2024-02-23T12:48:28;97833.44;;;11.50;75.12
48796;BME280;34607;48.520;-1.330;2024-02-23T12:50:55;97835.06;;;11.22;74.61
48796;BME280;34607;48.520;-1.330;2024-02-23T12:53:33;97826.28;;;10.95;74.92
48796;BME280;34607;48.520;-1.330;2024-02-23T12:56:04;97835.16;;;10.85;75.78
48796;BME280;34607;48.520;-1.330;2024-02-23T12:58:33;97839.66;;;10.78;76.28
48796;BME280;34607;48.520;-1.330;2024-02-23T13:01:00;97837.19;;;10.72;76.78
48796;BME280;34607;48.520;-1.330;2024-02-23T13:03:28;97839.28;;;10.58;76.37
48796;BME280;34607;48.520;-1.330;2024-02-23T13:05:56;97839.41;;;10.52;76.19
48796;BME280;34607;48.520;-1.330;2024-02-23T13:08:23;97841.13;;;10.53;75.91
48796;BME280;34607;48.520;-1.330;2024-02-23T13:10:51;97830.31;;;10.37;76.15
48796;BME280;34607;48.520;-1.330;2024-02-23T13:13:20;97837.22;;;10.35;76.23
48796;BME280;34607;48.520;-1.330;2024-02-23T13:15:50;97840.88;;;10.24;76.32
48796;BME280;34607;48.520;-1.330;2024-02-23T13:18:17;97815.78;;;10.65;75.91
48796;BME280;34607;48.520;-1.330;2024-02-23T13:20:45;97815.34;;;11.17;75.25
48796;BME280;34607;48.520;-1.330;2024-02-23T13:23:12;97819.94;;;11.38;74.13
48796;BME280;34607;48.520;-1.330;2024-02-23T13:25:42;97814.03;;;11.33;73.74
48796;BME280;34607;48.520;-1.330;2024-02-23T13:28:10;97816.91;;;11.54;73.40
48796;BME280;34607;48.520;-1.330;2024-02-23T13:30:39;97812.13;;;11.40;72.78
48796;BME280;34607;48.520;-1.330;2024-02-23T13:33:06;97814.06;;;11.32;73.17
48796;BME280;34607;48.520;-1.330;2024-02-23T13:35:33;97817.47;;;11.34;73.45
48796;BME280;34607;48.520;-1.330;2024-02-23T13:38:00;97810.50;;;11.36;74.42
48796;BME280;34607;48.520;-1.330;2024-02-23T13:40:29;97808.00;;;11.33;74.42
48796;BME280;34607;48.520;-1.330;2024-02-23T13:42:56;97802.72;;;11.04;74.06
48796;BME280;34607;48.520;-1.330;2024-02-23T13:45:23;97806.69;;;10.85;74.77
48796;BME280;34607;48.520;-1.330;2024-02-23T13:47:59;97802.94;;;10.62;75.10
48796;BME280;34607;48.520;-1.330;2024-02-23T13:50:26;97801.69;;;10.43;75.82
48796;BME280;34607;48.520;-1.330;2024-02-23T13:52:54;97800.22;;;10.33;76.46
48796;BME280;34607;48.520;-1.330;2024-02-23T13:55:21;97799.44;;;10.27;76.75
48796;BME280;34607;48.520;-1.330;2024-02-23T13:57:48;97793.81;;;10.10;76.64
48796;BME280;34607;48.520;-1.330;2024-02-23T14:00:16;97796.75;;;9.94;76.46
48796;BME280;34607;48.520;-1.330;2024-02-23T14:02:44;97795.81;;;9.97;77.02
48796;BME280;34607;48.520;-1.330;2024-02-23T14:05:13;97786.69;;;9.82;76.81
48796;BME280;34607;48.520;-1.330;2024-02-23T14:07:40;97795.31;;;9.81;77.11
48796;BME280;34607;48.520;-1.330;2024-02-23T14:10:08;97801.19;;;9.88;77.38
48796;BME280;34607;48.520;-1.330;2024-02-23T14:12:35;97799.25;;;9.99;77.70
48796;BME280;34607;48.520;-1.330;2024-02-23T14:15:03;97782.66;;;10.08;77.87
48796;BME280;34607;48.520;-1.330;2024-02-23T14:17:30;97800.19;;;9.95;77.49
48796;BME280;34607;48.520;-1.330;2024-02-23T14:19:57;97802.31;;;9.76;77.50
48796;BME280;34607;48.520;-1.330;2024-02-23T14:22:26;97790.41;;;9.69;77.74
48796;BME280;34607;48.520;-1.330;2024-02-23T14:24:53;97792.75;;;9.80;78.20
48796;BME280;34607;48.520;-1.330;2024-02-23T14:27:20;97788.66;;;9.71;77.52
48796;BME280;34607;48.520;-1.330;2024-02-23T14:29:47;97786.34;;;9.57;77.92
48796;BME280;34607;48.520;-1.330;2024-02-23T14:32:16;97787.09;;;9.62;77.65
48796;BME280;34607;48.520;-1.330;2024-02-23T14:34:43;97786.53;;;9.49;77.62
48796;BME280;34607;48.520;-1.330;2024-02-23T14:37:11;97787.44;;;9.47;77.62
48796;BME280;34607;48.520;-1.330;2024-02-23T14:39:39;97771.91;;;9.48;78.08
48796;BME280;34607;48.520;-1.330;2024-02-23T14:42:06;97776.31;;;9.43;78.03
48796;BME280;34607;48.520;-1.330;2024-02-23T14:44:35;97782.47;;;9.37;77.97
48796;BME280;34607;48.520;-1.330;2024-02-23T14:47:02;97768.78;;;9.34;77.96
48796;BME280;34607;48.520;-1.330;2024-02-23T14:49:31;97772.34;;;9.27;78.01
48796;BME280;34607;48.520;-1.330;2024-02-23T14:51:58;97776.72;;;9.23;78.13
48796;BME280;34607;48.520;-1.330;2024-02-23T14:54:25;97778.56;;;9.16;78.50
48796;BME280;34607;48.520;-1.330;2024-02-23T14:56:53;97786.31;;;9.16;78.81
48796;BME280;34607;48.520;-1.330;2024-02-23T14:59:21;97789.97;;;9.05;78.92
48796;BME280;34607;48.520;-1.330;2024-02-23T15:01:48;97784.50;;;8.75;79.28
48796;BME280;34607;48.520;-1.330;2024-02-23T15:04:15;97796.69;;;8.65;80.28
48796;BME280;34607;48.520;-1.330;2024-02-23T15:06:42;97796.16;;;8.46;80.51
48796;BME280;34607;48.520;-1.330;2024-02-23T15:09:09;97798.06;;;8.33;79.60
48796;BME280;34607;48.520;-1.330;2024-02-23T15:11:37;97789.53;;;8.30;79.74
48796;BME280;34607;48.520;-1.330;2024-02-23T15:14:05;97794.66;;;8.31;80.13
48796;BME280;34607;48.520;-1.330;2024-02-23T15:16:32;97781.63;;;8.40;80.23
48796;BME280;34607;48.520;-1.330;2024-02-23T15:18:59;97778.31;;;8.32;80.17
48796;BME280;34607;48.520;-1.330;2024-02-23T15:21:26;97782.56;;;8.36;80.25
48796;BME280;34607;48.520;-1.330;2024-02-23T15:23:53;97781.72;;;8.33;81.08
48796;BME280;34607;48.520;-1.330;2024-02-23T15:26:21;97780.84;;;8.35;81.46
48796;BME280;34607;48.520;-1.330;2024-02-23T15:28:49;97776.50;;;8.37;81.88
48796;BME280;34607;48.520;-1.330;2024-02-23T15:31:17;97796.25;;;8.40;82.71
48796;BME280;34607;48.520;-1.330;2024-02-23T15:33:45;97838.38;;;8.37;83.39
48796;BME280;34607;48.520;-1.330;2024-02-23T15:36:12;97848.09;;;7.56;84.82
48796;BME280;34607;48.520;-1.330;2024-02-23T15:38:41;97845.13;;;7.16;86.13
48796;BME280;34607;48.520;-1.330;2024-02-23T15:41:11;97861.06;;;6.62;88.00
48796;BME280;34607;48.520;-1.330;2024-02-23T15:43:38;97867.38;;;6.14;91.10
48796;BME280;34607;48.520;-1.330;2024-02-23T15:46:05;97879.38;;;6.14;91.59
48796;BME280;34607;48.520;-1.330;2024-02-23T15:48:34;97880.34;;;5.85;91.94
48796;BME280;34607;48.520;-1.330;2024-02-23T15:51:01;97887.28;;;5.71;92.85
48796;BME280;34607;48.520;-1.330;2024-02-23T15:53:28;97890.72;;;5.59;93.61
48796;BME280;34607;48.520;-1.330;2024-02-23T15:55:55;97892.41;;;5.58;93.67
48796;BME280;34607;48.520;-1.330;2024-02-23T15:58:22;97889.00;;;5.61;94.01
48796;BME280;34607;48.520;-1.330;2024-02-23T16:00:49;97896.66;;;5.72;93.43
48796;BME280;34607;48.520;-1.330;2024-02-23T16:03:18;97860.84;;;5.44;93.74
48796;BME280;34607;48.520;-1.330;2024-02-23T16:05:46;97895.88;;;5.48;95.20
48796;BME280;34607;48.520;-1.330;2024-02-23T16:08:13;97894.22;;;5.29;95.67
48796;BME280;34607;48.520;-1.330;2024-02-23T16:10:41;97901.94;;;5.33;95.22
48796;BME280;34607;48.520;-1.330;2024-02-23T16:13:08;97891.63;;;5.36;94.74
48796;BME280;34607;48.520;-1.330;2024-02-23T16:15:35;97890.78;;;5.34;95.30
48796;BME280;34607;48.520;-1.330;2024-02-23T16:18:03;97889.06;;;5.47;95.41
48796;BME280;34607;48.520;-1.330;2024-02-23T16:20:30;97896.72;;;5.61;94.88
48796;BME280;34607;48.520;-1.330;2024-02-23T16:23:00;97886.38;;;5.70;94.62
48796;BME280;34607;48.520;-1.330;2024-02-23T16:25:28;97883.84;;;5.67;95.00
48796;BME280;34607;48.520;-1.330;2024-02-23T16:27:55;97888.09;;;5.74;95.20
48796;BME280;34607;48.520;-1.330;2024-02-23T16:30:22;97877.78;;;5.87;95.04
48796;BME280;34607;48.520;-1.330;2024-02-23T16:32:49;97873.47;;;5.95;94.82
48796;BME280;34607;48.520;-1.330;2024-02-23T16:35:19;97870.88;;;6.01;94.90
48796;BME280;34607;48.520;-1.330;2024-02-23T16:37:46;97866.47;;;6.22;95.06
48796;BME280;34607;48.520;-1.330;2024-02-23T16:40:23;97852.78;;;6.18;93.92
48796;BME280;34607;48.520;-1.330;2024-02-23T16:42:57;97858.84;;;6.11;94.36
48796;BME280;34607;48.520;-1.330;2024-02-23T16:45:25;97851.00;;;6.31;94.79
48796;BME280;34607;48.520;-1.330;2024-02-23T16:47:53;97862.94;;;6.41;94.31
48796;BME280;34607;48.520;-1.330;2024-02-23T16:50:20;97858.56;;;6.49;94.20
48796;BME280;34607;48.520;-1.330;2024-02-23T16:52:47;97864.44;;;6.67;93.95
48796;BME280;34607;48.520;-1.330;2024-02-23T16:55:15;97872.97;;;6.73;93.35
48796;BME280;34607;48.520;-1.330;2024-02-23T16:57:44;97879.78;;;6.74;93.02
48796;BME280;34607;48.520;-1.330;2024-02-23T17:00:12;97873.78;;;6.77;92.99
48796;BME280;34607;48.520;-1.330;2024-02-23T17:02:39;97874.72;;;6.68;92.82
48796;BME280;34607;48.520;-1.330;2024-02-23T17:05:06;97879.00;;;6.65;93.14
48796;BME280;34607;48.520;-1.330;2024-02-23T17:07:33;97866.22;;;6.57;93.05
48796;BME280;34607;48.520;-1.330;2024-02-23T17:10:01;97858.63;;;6.43;93.24
48796;BME280;34607;48.520;-1.330;2024-02-23T17:12:28;97876.63;;;6.40;93.15
48796;BME280;34607;48.520;-1.330;2024-02-23T17:14:56;97880.94;;;6.38;93.18
48796;BME280;34607;48.520;-1.330;2024-02-23T17:17:24;97878.41;;;6.32;93.21
48796;BME280;34607;48.520;-1.330;2024-02-23T17:19:51;97878.47;;;6.19;93.11
48796;BME280;34607;48.520;-1.330;2024-02-23T17:22:18;97881.06;;;6.16;93.66
48796;BME280;34607;48.520;-1.330;2024-02-23T17:24:46;97881.13;;;6.09;94.09
48796;BME280;34607;48.520;-1.330;2024-02-23T17:27:15;97881.97;;;6.06;94.14
48796;BME280;34607;48.520;-1.330;2024-02-23T17:29:42;97894.00;;;5.99;94.31
48796;BME280;34607;48.520;-1.330;2024-02-23T17:32:10;97888.00;;;5.94;94.49
48796;BME280;34607;48.520;-1.330;2024-02-23T17:34:37;97882.03;;;5.89;94.59
48796;BME280;34607;48.520;-1.330;2024-02-23T17:37:04;97883.75;;;5.86;94.77
48796;BME280;34607;48.520;-1.330;2024-02-23T17:39:32;97887.22;;;5.85;94.83
48796;BME280;34607;48.520;-1.330;2024-02-23T17:41:59;97888.06;;;5.77;94.95
48796;BME280;34607;48.520;-1.330;2024-02-23T17:44:28;97894.94;;;5.72;94.93
48796;BME280;34607;48.520;-1.330;2024-02-23T17:46:55;97894.09;;;5.70;94.89
48796;BME280;34607;48.520;-1.330;2024-02-23T17:49:23;97895.88;;;5.60;94.71
48796;BME280;34607;48.520;-1.330;2024-02-23T17:51:50;97885.59;;;5.57;94.99
48796;BME280;34607;48.520;-1.330;2024-02-23T17:54:17;97894.16;;;5.56;95.07
48796;BME280;34607;48.520;-1.330;2024-02-23T17:56:44;97889.91;;;5.48;95.08
48796;BME280;34607;48.520;-1.330;2024-02-23T17:59:12;97886.50;;;5.39;95.51
48796;BME280;34607;48.520;-1.330;2024-02-23T18:01:39;97887.38;;;5.35;95.34
48796;BME280;34607;48.520;-1.330;2024-02-23T18:04:06;97889.97;;;5.21;95.35
48796;BME280;34607;48.520;-1.330;2024-02-23T18:06:35;97889.97;;;5.21;95.64
48796;BME280;34607;48.520;-1.330;2024-02-23T18:09:02;97888.25;;;5.22;96.05
48796;BME280;34607;48.520;-1.330;2024-02-23T18:11:29;97893.38;;;5.22;95.89
48796;BME280;34607;48.520;-1.330;2024-02-23T18:13:56;97892.56;;;5.04;96.14
48796;BME280;34607;48.520;-1.330;2024-02-23T18:16:23;97892.59;;;4.89;96.87
48796;BME280;34607;48.520;-1.330;2024-02-23T18:18:50;97907.13;;;4.68;98.05
48796;BME280;34607;48.520;-1.330;2024-02-23T18:21:17;97912.25;;;4.67;98.08
48796;BME280;34607;48.520;-1.330;2024-02-23T18:23:47;97890.00;;;4.52;98.55
48796;BME280;34607;48.520;-1.330;2024-02-23T18:26:14;97905.38;;;4.50;98.90
48796;BME280;34607;48.520;-1.330;2024-02-23T18:28:41;97910.53;;;4.57;98.75
48796;BME280;34607;48.520;-1.330;2024-02-23T18:31:08;97919.94;;;4.55;99.04
48796;BME280;34607;48.520;-1.330;2024-02-23T18:33:35;97919.94;;;4.58;99.00
48796;BME280;34607;48.520;-1.330;2024-02-23T18:36:03;97906.25;;;4.45;99.55
48796;BME280;34607;48.520;-1.330;2024-02-23T18:38:30;97923.31;;;4.54;99.58
48796;BME280;34607;48.520;-1.330;2024-02-23T18:40:58;97922.47;;;4.41;100.00
48796;BME280;34607;48.520;-1.330;2024-02-23T18:43:28;97926.72;;;4.29;100.00
48796;BME280;34607;48.520;-1.330;2024-02-23T18:45:55;97925.84;;;4.23;100.00
48796;BME280;34607;48.520;-1.330;2024-02-23T18:48:22;97934.34;;;4.14;100.00
48796;BME280;34607;48.520;-1.330;2024-02-23T18:50:49;97932.66;;;4.10;100.00
48796;BME280;34607;48.520;-1.330;2024-02-23T18:53:17;97932.63;;;4.15;100.00
48796;BME280;34607;48.520;-1.330;2024-02-23T18:55:45;97937.78;;;4.19;100.00
48796;BME280;34607;48.520;-1.330;2024-02-23T18:58:13;97930.09;;;4.21;100.00
48796;BME280;34607;48.520;-1.330;2024-02-23T19:00:41;97936.94;;;4.17;100.00
48796;BME280;34607;48.520;-1.330;2024-02-23T19:03:08;97930.94;;;4.21;100.00
48796;BME280;34607;48.520;-1.330;2024-02-23T19:05:35;97938.63;;;4.12;100.00
48796;BME280;34607;48.520;-1.330;2024-02-23T19:08:03;97942.03;;;4.16;100.00
48796;BME280;34607;48.520;-1.330;2024-02-23T19:10:30;97944.63;;;4.20;100.00
48796;BME280;34607;48.520;-1.330;2024-02-23T19:12:57;97945.44;;;4.08;100.00
48796;BME280;34607;48.520;-1.330;2024-02-23T19:15:25;97950.56;;;4.08;100.00
48796;BME280;34607;48.520;-1.330;2024-02-23T19:17:53;97926.53;;;3.80;100.00
48796;BME280;34607;48.520;-1.330;2024-02-23T19:20:21;97942.84;;;4.01;100.00
48796;BME280;34607;48.520;-1.330;2024-02-23T19:22:48;97945.41;;;4.01;100.00
48796;BME280;34607;48.520;-1.330;2024-02-23T19:25:19;97961.63;;;4.00;100.00
48796;BME280;34607;48.520;-1.330;2024-02-23T19:27:46;97955.63;;;3.94;100.00
48796;BME280;34607;48.520;-1.330;2024-02-23T19:30:13;97959.91;;;4.00;100.00
48796;BME280;34607;48.520;-1.330;2024-02-23T19:32:42;97958.25;;;4.07;100.00
48796;BME280;34607;48.520;-1.330;2024-02-23T19:35:09;97948.81;;;3.98;100.00
48796;BME280;34607;48.520;-1.330;2024-02-23T19:37:36;97950.47;;;3.85;100.00
48796;BME280;34607;48.520;-1.330;2024-02-23T19:40:04;97964.19;;;4.01;100.00
48796;BME280;34607;48.520;-1.330;2024-02-23T19:42:32;97971.00;;;3.99;100.00
48796;BME280;34607;48.520;-1.330;2024-02-23T19:44:59;97970.97;;;3.88;100.00
48796;BME280;34607;48.520;-1.330;2024-02-23T19:47:26;97970.13;;;3.89;100.00
48796;BME280;34607;48.520;-1.330;2024-02-23T19:49:54;97970.09;;;3.86;100.00
48796;BME280;34607;48.520;-1.330;2024-02-23T19:52:21;97960.69;;;3.79;100.00
48796;BME280;34607;48.520;-1.330;2024-02-23T19:54:48;97967.50;;;3.80;100.00
48796;BME280;34607;48.520;-1.330;2024-02-23T19:57:15;97966.63;;;3.75;100.00
48796;BME280;34607;48.520;-1.330;2024-02-23T19:59:42;97980.25;;;3.68;100.00
48796;BME280;34607;48.520;-1.330;2024-02-23T20:02:10;97976.81;;;3.64;100.00
48796;BME280;34607;48.520;-1.330;2024-02-23T20:04:39;97973.38;;;3.61;100.00
48796;BME280;34607;48.520;-1.330;2024-02-23T20:07:08;97957.97;;;3.48;100.00
48796;BME280;34607;48.520;-1.330;2024-02-23T20:09:38;97981.06;;;3.61;100.00
48796;BME280;34607;48.520;-1.330;2024-02-23T20:12:06;97977.63;;;3.55;100.00
48796;BME280;34607;48.520;-1.330;2024-02-23T20:14:34;97981.03;;;3.51;100.00
48796;BME280;34607;48.520;-1.330;2024-02-23T20:17:01;97974.19;;;3.53;100.00
48796;BME280;34607;48.520;-1.330;2024-02-23T20:19:28;97984.53;;;3.69;100.00
48796;BME280;34607;48.520;-1.330;2024-02-23T20:21:56;97985.34;;;3.68;100.00
48796;BME280;34607;48.520;-1.330;2024-02-23T20:24:24;97984.56;;;3.72;100.00
48796;BME280;34607;48.520;-1.330;2024-02-23T20:26:53;97993.91;;;3.71;100.00
48796;BME280;34607;48.520;-1.330;2024-02-23T20:29:20;97965.66;;;3.54;100.00
48796;BME280;34607;48.520;-1.330;2024-02-23T20:31:47;97988.84;;;3.84;100.00
48796;BME280;34607;48.520;-1.330;2024-02-23T20:34:14;97992.31;;;3.87;100.00
48796;BME280;34607;48.520;-1.330;2024-02-23T20:36:42;97989.75;;;3.87;100.00
48796;BME280;34607;48.520;-1.330;2024-02-23T20:39:09;97990.59;;;3.86;100.00
48796;BME280;34607;48.520;-1.330;2024-02-23T20:41:39;97990.53;;;3.77;100.00
48796;BME280;34607;48.520;-1.330;2024-02-23T20:44:07;98000.78;;;3.77;100.00
48796;BME280;34607;48.520;-1.330;2024-02-23T20:46:34;97995.66;;;3.77;100.00
48796;BME280;34607;48.520;-1.330;2024-02-23T20:49:01;97996.53;;;3.79;100.00
48796;BME280;34607;48.520;-1.330;2024-02-23T20:51:29;97999.91;;;3.77;100.00
48796;BME280;34607;48.520;-1.330;2024-02-23T20:53:56;97991.34;;;3.71;100.00
48796;BME280;34607;48.520;-1.330;2024-02-23T20:56:23;97999.91;;;3.72;100.00
48796;BME280;34607;48.520;-1.330;2024-02-23T20:58:54;97998.97;;;3.61;100.00
48796;BME280;34607;48.520;-1.330;2024-02-23T21:01:21;97989.56;;;3.55;100.00
48796;BME280;34607;48.520;-1.330;2024-02-23T21:03:48;98000.75;;;3.74;100.00
48796;BME280;34607;48.520;-1.330;2024-02-23T21:06:16;98007.59;;;3.78;100.00
48796;BME280;34607;48.520;-1.330;2024-02-23T21:08:44;98018.72;;;3.77;100.00
48796;BME280;34607;48.520;-1.330;2024-02-23T21:11:12;98012.72;;;3.78;100.00
48796;BME280;34607;48.520;-1.330;2024-02-23T21:13:40;98020.41;;;3.81;100.00
48796;BME280;34607;48.520;-1.330;2024-02-23T21:16:08;98017.84;;;3.80;100.00
48796;BME280;34607;48.520;-1.330;2024-02-23T21:18:35;98016.13;;;3.80;100.00
48796;BME280;34607;48.520;-1.330;2024-02-23T21:21:02;98023.75;;;3.68;100.00
48796;BME280;34607;48.520;-1.330;2024-02-23T21:23:29;98022.91;;;3.67;100.00
48796;BME280;34607;48.520;-1.330;2024-02-23T21:25:57;98026.34;;;3.71;100.00
48796;BME280;34607;48.520;-1.330;2024-02-23T21:28:24;98027.16;;;3.65;100.00
48796;BME280;34607;48.520;-1.330;2024-02-23T21:30:51;98030.53;;;3.63;100.00
48796;BME280;34607;48.520;-1.330;2024-02-23T21:33:22;98021.16;;;3.60;100.00
48796;BME280;34607;48.520;-1.330;2024-02-23T21:35:49;98035.72;;;3.73;100.00
48796;BME280;34607;48.520;-1.330;2024-02-23T21:38:16;98036.59;;;3.74;100.00